createdAt,value
2022-11-07T00:00:58.311Z,8.73
2022-11-07T00:04:04.812Z,7.50
2022-11-07T00:07:12.906Z,10.73
2022-11-07T00:10:19.169Z,10.63
2022-11-07T00:13:27.465Z,10.50
2022-11-07T00:16:34.093Z,9.73
2022-11-07T00:19:40.125Z,13.70
2022-11-07T00:22:47.847Z,8.10
2022-11-07T00:25:54.193Z,7.43
2022-11-07T00:29:00.365Z,7.60
2022-11-07T00:32:06.975Z,10.67
2022-11-07T00:35:13.073Z,9.23
2022-11-07T00:38:20.605Z,9.83
2022-11-07T00:41:26.866Z,7.27
2022-11-07T00:44:32.634Z,10.53
2022-11-07T00:47:38.647Z,9.17
2022-11-07T00:50:44.918Z,7.13
2022-11-07T00:53:53.114Z,10.20
2022-11-07T00:56:59.115Z,8.80
2022-11-07T01:00:05.814Z,14.37
2022-11-07T01:03:44.161Z,12.10
2022-11-07T01:06:50.975Z,7.83
2022-11-07T01:09:58.777Z,9.07
2022-11-07T01:13:04.947Z,7.13
2022-11-07T01:16:11.492Z,7.87
2022-11-07T01:19:19.004Z,12.13
2022-11-07T01:22:25.190Z,7.97
2022-11-07T01:25:33.083Z,8.30
2022-11-07T01:28:39.988Z,6.50
2022-11-07T01:31:46.661Z,6.73
2022-11-07T01:34:52.757Z,6.63
2022-11-07T01:37:58.504Z,8.27
2022-11-07T01:41:25.702Z,6.60
2022-11-07T01:44:57.155Z,7.17
2022-11-07T01:48:03.858Z,6.77
2022-11-07T01:51:10.121Z,5.40
2022-11-07T01:54:20.859Z,9.60
2022-11-07T01:57:32.111Z,13.27
2022-11-07T02:00:38.685Z,7.13
2022-11-07T02:03:47.319Z,6.20
2022-11-07T02:06:59.705Z,9.67
2022-11-07T02:10:07.535Z,6.67
2022-11-07T02:13:21.186Z,8.97
2022-11-07T02:16:27.973Z,9.03
2022-11-07T02:19:37.267Z,8.33
2022-11-07T02:22:51.153Z,10.40
2022-11-07T02:25:59.272Z,5.57
2022-11-07T02:29:10.472Z,9.20
2022-11-07T02:32:16.802Z,7.50
2022-11-07T02:35:36.878Z,9.67
2022-11-07T02:38:43.596Z,7.63
2022-11-07T02:41:52.898Z,10.33
2022-11-07T02:44:59.433Z,13.90
2022-11-07T02:48:06.138Z,7.47
2022-11-07T02:51:12.552Z,7.77
2022-11-07T02:54:18.554Z,10.90
2022-11-07T02:57:25.815Z,11.57
2022-11-07T03:00:31.963Z,17.63
2022-11-07T03:03:40.533Z,8.80
2022-11-07T03:06:46.448Z,9.33
2022-11-07T03:09:52.608Z,6.87
2022-11-07T03:12:59.858Z,9.57
2022-11-07T03:16:07.151Z,8.93
2022-11-07T03:19:13.418Z,7.83
2022-11-07T03:22:19.540Z,9.60
2022-11-07T03:25:25.611Z,9.50
2022-11-07T03:28:33.328Z,5.93
2022-11-07T03:31:39.583Z,8.43
2022-11-07T03:34:45.838Z,9.37
2022-11-07T03:37:52.137Z,9.50
2022-11-07T03:40:58.152Z,9.00
2022-11-07T03:44:05.609Z,9.63
2022-11-07T03:47:11.624Z,18.87
2022-11-07T03:50:20.190Z,10.37
2022-11-07T03:53:26.809Z,10.40
2022-11-07T03:56:33.565Z,6.87
2022-11-07T03:59:41.296Z,13.13
2022-11-07T04:02:47.867Z,7.70
2022-11-07T04:05:53.959Z,22.43
2022-11-07T04:08:59.975Z,12.33
2022-11-07T04:12:24.363Z,12.63
2022-11-07T04:15:48.848Z,10.93
2022-11-07T04:18:54.717Z,11.73
2022-11-07T04:22:00.739Z,17.77
2022-11-07T04:25:07.716Z,12.10
2022-11-07T04:28:12.700Z,10.67
2022-11-07T04:31:20.261Z,11.50
2022-11-07T04:34:26.361Z,7.83
2022-11-07T04:37:32.333Z,8.60
2022-11-07T04:40:38.665Z,7.70
2022-11-07T04:43:44.990Z,29.90
2022-11-07T04:46:52.450Z,17.77
2022-11-07T04:49:59.295Z,24.23
2022-11-07T04:53:05.946Z,16.40
2022-11-07T04:56:12.276Z,15.00
2022-11-07T04:59:19.629Z,19.13
2022-11-07T05:02:27.613Z,16.97
2022-11-07T05:05:34.061Z,16.33
2022-11-07T05:08:40.122Z,12.93
2022-11-07T05:11:46.253Z,10.53
2022-11-07T05:14:52.232Z,80.77
2022-11-07T05:17:59.706Z,69.60
2022-11-07T05:21:06.213Z,38.77
2022-11-07T05:24:12.727Z,22.53
2022-11-07T05:27:19.819Z,21.73
2022-11-07T05:30:26.110Z,18.43
2022-11-07T05:33:33.488Z,14.33
2022-11-07T05:36:39.686Z,19.17
2022-11-07T05:39:45.743Z,15.70
2022-11-07T05:42:53.511Z,31.57
2022-11-07T05:46:03.190Z,48.73
2022-11-07T05:49:16.375Z,29.33
2022-11-07T05:52:25.723Z,31.67
2022-11-07T05:55:35.362Z,46.47
2022-11-07T05:58:42.091Z,31.83
2022-11-07T06:01:51.192Z,28.83
2022-11-07T06:04:59.034Z,16.37
2022-11-07T06:08:05.697Z,16.67
2022-11-07T06:11:12.195Z,9.77
2022-11-07T06:14:18.588Z,10.13
2022-11-07T06:17:24.855Z,24.10
2022-11-07T06:20:32.357Z,76.20
2022-11-07T06:23:39.938Z,31.10
2022-11-07T06:26:46.842Z,18.27
2022-11-07T06:29:53.175Z,16.13
2022-11-07T06:33:02.610Z,16.80
2022-11-07T06:36:12.925Z,14.20
2022-11-07T06:39:19.213Z,26.80
2022-11-07T06:42:27.249Z,22.00
2022-11-07T06:45:33.380Z,30.43
2022-11-07T06:48:39.741Z,27.47
2022-11-07T06:51:48.105Z,18.50
2022-11-07T06:54:54.388Z,14.97
2022-11-07T06:58:01.305Z,16.27
2022-11-07T07:01:09.966Z,21.67
2022-11-07T07:04:16.153Z,12.13
2022-11-07T07:07:23.632Z,15.53
2022-11-07T07:10:30.081Z,19.90
2022-11-07T07:13:36.999Z,19.03
2022-11-07T07:16:43.090Z,18.57
2022-11-07T07:19:48.969Z,28.23
2022-11-07T07:23:00.248Z,20.50
2022-11-07T07:26:13.818Z,30.60
2022-11-07T07:29:20.286Z,29.70
2022-11-07T07:32:27.093Z,30.50
2022-11-07T07:35:33.450Z,28.37
2022-11-07T07:38:41.526Z,27.87
2022-11-07T07:41:50.180Z,26.00
2022-11-07T07:44:56.759Z,27.70
2022-11-07T07:48:03.337Z,35.10
2022-11-07T07:51:09.839Z,25.63
2022-11-07T07:54:17.616Z,23.27
2022-11-07T07:57:23.739Z,27.07
2022-11-07T08:00:30.006Z,21.13
2022-11-07T08:03:59.658Z,24.90
2022-11-07T08:07:01.915Z,25.77
2022-11-07T08:10:39.447Z,26.13
2022-11-07T08:13:36.651Z,33.67
2022-11-07T08:16:42.774Z,31.13
2022-11-07T08:19:48.909Z,23.27
2022-11-07T08:23:02.431Z,24.50
2022-11-07T08:26:10.203Z,23.97
2022-11-07T08:29:16.607Z,23.97
2022-11-07T08:32:22.914Z,23.60
2022-11-07T08:35:28.976Z,20.27
2022-11-07T08:38:36.875Z,20.60
2022-11-07T08:41:44.424Z,20.77
2022-11-07T08:44:50.835Z,26.23
2022-11-07T08:48:00.847Z,20.57
2022-11-07T08:51:07.303Z,24.07
2022-11-07T08:54:13.541Z,19.87
2022-11-07T08:57:21.015Z,39.20
2022-11-07T09:00:27.343Z,26.43
2022-11-07T09:03:54.612Z,16.97
2022-11-07T09:06:59.782Z,16.83
2022-11-07T09:10:06.427Z,22.27
2022-11-07T09:13:15.275Z,15.17
2022-11-07T09:16:22.988Z,11.70
2022-11-07T09:19:29.488Z,13.33
2022-11-07T09:23:19.519Z,16.53
2022-11-07T09:26:26.761Z,15.30
2022-11-07T09:29:34.545Z,16.00
2022-11-07T09:32:45.597Z,13.03
2022-11-07T09:35:52.207Z,13.00
2022-11-07T09:38:59.305Z,27.33
2022-11-07T09:42:14.647Z,16.13
2022-11-07T09:45:22.283Z,13.40
2022-11-07T09:48:39.938Z,17.10
2022-11-07T09:51:51.628Z,13.10
2022-11-07T09:55:02.649Z,19.77
2022-11-07T09:58:17.206Z,16.43
2022-11-07T10:01:25.843Z,19.50
2022-11-07T10:04:32.116Z,16.73
2022-11-07T10:07:47.019Z,17.23
2022-11-07T10:10:58.887Z,13.80
2022-11-07T10:14:27.196Z,14.17
2022-11-07T10:17:42.830Z,12.97
2022-11-07T10:21:10.488Z,17.97
2022-11-07T10:24:40.497Z,13.50
2022-11-07T10:27:52.083Z,15.57
2022-11-07T10:31:02.762Z,13.07
2022-11-07T10:34:19.102Z,17.87
2022-11-07T10:37:25.008Z,14.77
2022-11-07T10:40:38.617Z,13.00
2022-11-07T10:43:49.915Z,8.87
2022-11-07T10:46:56.199Z,8.10
2022-11-07T10:50:17.821Z,19.97
2022-11-07T10:53:26.824Z,12.47
2022-11-07T10:56:45.602Z,8.90
2022-11-07T10:59:57.848Z,7.77
2022-11-07T11:03:04.004Z,8.07
2022-11-07T11:06:18.300Z,8.77
2022-11-07T11:09:27.249Z,12.50
2022-11-07T11:12:35.633Z,9.93
2022-11-07T11:15:45.887Z,10.50
2022-11-07T11:18:53.182Z,8.93
2022-11-07T11:22:04.793Z,14.23
2022-11-07T11:25:19.812Z,12.80
2022-11-07T11:28:33.260Z,25.20
2022-11-07T11:31:44.640Z,13.97
2022-11-07T11:34:59.395Z,17.23
2022-11-07T11:38:15.454Z,12.67
2022-11-07T11:41:26.139Z,14.33
2022-11-07T11:44:39.027Z,10.23
2022-11-07T11:47:51.293Z,11.90
2022-11-07T11:51:01.507Z,11.03
2022-11-07T11:54:12.079Z,14.23
2022-11-07T11:57:24.406Z,8.23
2022-11-07T12:00:36.198Z,16.53
2022-11-07T12:03:57.132Z,10.23
2022-11-07T12:07:13.419Z,11.47
2022-11-07T12:10:30.477Z,13.30
2022-11-07T12:13:46.126Z,12.53
2022-11-07T12:16:58.652Z,11.37
2022-11-07T12:20:18.106Z,12.70
2022-11-07T12:23:38.774Z,9.33
2022-11-07T12:26:57.601Z,7.60
2022-11-07T12:30:16.907Z,7.60
2022-11-07T12:33:33.665Z,11.77
2022-11-07T12:36:52.766Z,12.07
2022-11-07T12:40:11.589Z,10.60
2022-11-07T12:43:31.334Z,7.80
2022-11-07T12:46:47.105Z,7.07
2022-11-07T12:50:07.141Z,7.03
2022-11-07T12:53:24.181Z,5.30
2022-11-07T12:56:34.190Z,7.97
2022-11-07T12:59:46.125Z,5.20
2022-11-07T13:03:26.436Z,8.97
2022-11-07T13:06:37.632Z,5.27
2022-11-07T13:09:53.203Z,7.83
2022-11-07T13:13:03.661Z,10.13
2022-11-07T13:16:23.550Z,9.87
2022-11-07T13:19:33.129Z,5.57
2022-11-07T13:22:41.859Z,6.53
2022-11-07T13:25:59.853Z,6.30
2022-11-07T13:29:22.754Z,12.40
2022-11-07T13:32:40.153Z,5.57
2022-11-07T13:35:55.415Z,8.53
2022-11-07T13:39:06.058Z,10.93
2022-11-07T13:42:17.315Z,7.20
2022-11-07T13:45:28.430Z,10.60
2022-11-07T13:48:47.705Z,13.80
2022-11-07T13:51:56.606Z,13.83
2022-11-07T13:55:10.188Z,11.97
2022-11-07T13:58:18.662Z,23.37
2022-11-07T14:01:24.918Z,18.93
2022-11-07T14:04:40.500Z,20.87
2022-11-07T14:08:01.232Z,15.33
2022-11-07T14:11:17.127Z,20.27
2022-11-07T14:14:25.305Z,26.13
2022-11-07T14:17:34.837Z,20.17
2022-11-07T14:20:47.775Z,35.63
2022-11-07T14:23:53.983Z,27.20
2022-11-07T14:27:02.486Z,18.77
2022-11-07T14:30:17.571Z,17.47
2022-11-07T14:33:24.332Z,19.93
2022-11-07T14:36:32.010Z,12.13
2022-11-07T14:39:39.551Z,9.40
2022-11-07T14:42:47.009Z,29.87
2022-11-07T14:46:16.596Z,28.63
2022-11-07T14:49:26.620Z,40.10
2022-11-07T14:52:38.357Z,61.40
2022-11-07T14:55:47.154Z,26.90
2022-11-07T14:58:53.208Z,22.30
2022-11-07T15:02:19.876Z,31.10
2022-11-07T15:05:28.953Z,40.87
2022-11-07T15:08:38.389Z,87.67
2022-11-07T15:11:57.641Z,39.93
2022-11-07T15:15:10.191Z,17.20
2022-11-07T15:18:27.686Z,23.83
2022-11-07T15:21:36.374Z,21.07
2022-11-07T15:24:45.959Z,15.40
2022-11-07T15:27:52.086Z,16.03
2022-11-07T15:31:00.790Z,21.47
2022-11-07T15:34:12.204Z,30.50
2022-11-07T15:37:20.447Z,29.17
2022-11-07T15:40:30.116Z,27.33
2022-11-07T15:43:36.559Z,21.30
2022-11-07T15:46:43.045Z,18.83
2022-11-07T15:49:49.732Z,28.23
2022-11-07T15:52:56.260Z,27.07
2022-11-07T15:56:08.321Z,43.37
2022-11-07T15:59:20.114Z,73.53
2022-11-07T16:02:26.347Z,58.67
2022-11-07T16:05:32.692Z,51.77
2022-11-07T16:08:40.357Z,53.93
2022-11-07T16:11:48.174Z,56.50
2022-11-07T16:14:59.335Z,50.97
2022-11-07T16:18:06.033Z,42.10
2022-11-07T16:21:12.245Z,38.83
2022-11-07T16:24:18.318Z,37.77
2022-11-07T16:27:25.699Z,33.80
2022-11-07T16:30:32.721Z,40.80
2022-11-07T16:33:39.178Z,26.43
2022-11-07T16:36:45.412Z,40.90
2022-11-07T16:39:51.456Z,32.27
2022-11-07T16:42:58.971Z,28.40
2022-11-07T16:46:06.420Z,39.77
2022-11-07T16:49:15.510Z,43.37
2022-11-07T16:52:23.009Z,49.43
2022-11-07T16:55:29.364Z,58.33
2022-11-07T16:58:40.039Z,51.37
2022-11-07T17:01:46.444Z,37.47
2022-11-07T17:04:54.160Z,49.93
2022-11-07T17:08:01.463Z,48.10
2022-11-07T17:11:07.647Z,38.20
2022-11-07T17:14:15.427Z,41.80
2022-11-07T17:17:22.808Z,43.33
2022-11-07T17:20:50.427Z,37.43
2022-11-07T17:23:59.103Z,41.23
2022-11-07T17:27:16.081Z,53.40
2022-11-07T17:30:23.511Z,70.20
2022-11-07T17:33:29.878Z,72.93
2022-11-07T17:36:38.478Z,110.43
2022-11-07T17:39:48.104Z,73.73
2022-11-07T17:42:54.556Z,63.27
2022-11-07T17:46:01.977Z,42.17
2022-11-07T17:49:09.915Z,55.60
2022-11-07T17:52:16.275Z,62.33
2022-11-07T17:55:22.351Z,62.30
2022-11-07T17:58:28.343Z,67.87
2022-11-07T18:01:38.536Z,70.23
2022-11-07T18:04:45.297Z,70.43
2022-11-07T18:07:51.349Z,55.73
2022-11-07T18:11:01.811Z,42.20
2022-11-07T18:14:08.191Z,36.67
2022-11-07T18:17:15.783Z,61.67
2022-11-07T18:20:21.989Z,62.87
2022-11-07T18:23:28.055Z,37.47
2022-11-07T18:26:34.921Z,52.83
2022-11-07T18:29:41.784Z,68.30
2022-11-07T18:32:49.615Z,52.90
2022-11-07T18:35:56.103Z,94.10
2022-11-07T18:39:06.923Z,85.93
2022-11-07T18:42:13.431Z,57.13
2022-11-07T18:45:19.895Z,68.13
2022-11-07T18:48:30.131Z,72.77
2022-11-07T18:51:36.647Z,59.33
2022-11-07T18:54:43.003Z,43.07
2022-11-07T18:57:49.307Z,75.93
2022-11-07T19:00:55.454Z,75.07
2022-11-07T19:04:06.014Z,84.53
2022-11-07T19:07:12.494Z,91.10
2022-11-07T19:10:19.812Z,153.60
2022-11-07T19:13:26.899Z,106.30
2022-11-07T19:16:33.091Z,43.40
2022-11-07T19:19:40.695Z,87.40
2022-11-07T19:22:46.926Z,38.40
2022-11-07T19:25:54.229Z,39.90
2022-11-07T19:29:02.433Z,35.50
2022-11-07T19:32:08.606Z,34.77
2022-11-07T19:35:17.526Z,25.23
2022-11-07T19:38:23.950Z,27.83
2022-11-07T19:41:30.301Z,24.27
2022-11-07T19:44:36.628Z,44.27
2022-11-07T19:47:42.829Z,33.87
2022-11-07T19:50:50.232Z,29.97
2022-11-07T19:53:59.070Z,30.93
2022-11-07T19:57:05.234Z,31.60
2022-11-07T20:00:12.619Z,29.87
2022-11-07T20:03:19.259Z,42.47
2022-11-07T20:06:30.571Z,41.20
2022-11-07T20:09:36.778Z,38.83
2022-11-07T20:12:42.633Z,40.60
2022-11-07T20:15:48.459Z,35.53
2022-11-07T20:18:54.799Z,33.23
2022-11-07T20:22:02.464Z,35.47
2022-11-07T20:25:09.493Z,37.77
2022-11-07T20:28:15.841Z,34.17
2022-11-07T20:31:23.843Z,36.67
2022-11-07T20:34:29.732Z,44.50
2022-11-07T20:37:38.347Z,68.93
2022-11-07T20:40:44.873Z,49.43
2022-11-07T20:43:54.817Z,78.90
2022-11-07T20:47:00.892Z,47.57
2022-11-07T20:50:07.944Z,37.70
2022-11-07T20:53:16.152Z,19.83
2022-11-07T20:56:24.375Z,25.30
2022-11-07T20:59:31.582Z,18.57
2022-11-07T21:02:37.654Z,31.70
2022-11-07T21:05:43.816Z,27.37
2022-11-07T21:08:52.354Z,22.80
2022-11-07T21:11:58.690Z,24.83
2022-11-07T21:15:05.989Z,43.57
2022-11-07T21:18:13.144Z,37.93
2022-11-07T21:21:22.180Z,37.63
2022-11-07T21:24:32.361Z,49.90
2022-11-07T21:27:38.323Z,40.20
2022-11-07T21:30:45.259Z,50.17
2022-11-07T21:33:51.656Z,39.70
2022-11-07T21:36:58.056Z,50.10
2022-11-07T21:40:06.194Z,39.80
2022-11-07T21:43:12.790Z,47.17
2022-11-07T21:46:21.226Z,43.37
2022-11-07T21:49:27.623Z,30.60
2022-11-07T21:52:33.845Z,40.47
2022-11-07T21:55:41.582Z,43.63
2022-11-07T21:58:49.439Z,55.60
2022-11-07T22:01:56.492Z,58.73
2022-11-07T22:05:03.306Z,49.60
2022-11-07T22:08:09.646Z,52.97
2022-11-07T22:11:17.836Z,25.63
2022-11-07T22:14:24.474Z,42.67
2022-11-07T22:17:30.960Z,21.43
2022-11-07T22:20:39.197Z,22.97
2022-11-07T22:23:45.932Z,29.97
2022-11-07T22:26:55.190Z,27.17
2022-11-07T22:30:01.532Z,20.77
2022-11-07T22:33:08.055Z,31.50
2022-11-07T22:36:14.858Z,31.53
2022-11-07T22:39:21.466Z,34.40
2022-11-07T22:42:29.121Z,36.40
2022-11-07T22:45:38.822Z,32.87
2022-11-07T22:48:45.547Z,35.53
2022-11-07T22:51:51.479Z,38.90
2022-11-07T22:54:57.644Z,33.17
2022-11-07T22:58:05.373Z,31.10
2022-11-07T23:01:16.934Z,24.30
2022-11-07T23:04:23.207Z,21.53
2022-11-07T23:07:29.438Z,17.13
2022-11-07T23:10:35.687Z,19.13
2022-11-07T23:13:44.674Z,27.50
2022-11-07T23:16:53.553Z,28.43
2022-11-07T23:19:59.555Z,33.73
2022-11-07T23:23:05.721Z,30.73
2022-11-07T23:26:13.422Z,32.20
2022-11-07T23:29:23.027Z,28.37
2022-11-07T23:32:31.552Z,36.17
2022-11-07T23:35:37.753Z,36.30
2022-11-07T23:38:44.809Z,30.00
2022-11-07T23:41:51.199Z,34.90
2022-11-07T23:45:15.916Z,32.83
2022-11-07T23:48:39.690Z,22.70
2022-11-07T23:51:47.456Z,28.00
2022-11-07T23:55:11.244Z,27.33
2022-11-07T23:58:34.851Z,25.63
